Time;durP1;ratioP1;P1;durP2;ratioP2;P2;SDS_P1;SDS_P2;PMS_P1;PMS_P2;Temp;Humidity;BMP_temperature;BMP_pressure;BME280_temperature;BME280_humidity;BME280_pressure;Samples;Min_cycle;Max_cycle;Signal;HPM_P1;HPM_P2
2022/04/03 00:00:36;;;;;;;;;;;;;;;0.64;41.89;98805.94;107581;1274;16525;-75
2022/04/03 00:03:09;;;;;;;;;;;;;;;0.61;41.88;98805.18;107594;1274;16656;-75
2022/04/03 00:05:38;;;;;;;;;;;;;;;0.61;41.89;98805.73;107607;1274;17843;-74
2022/04/03 00:08:06;;;;;;;;;;;;;;;0.58;41.69;98807.40;107622;1273;16473;-74
2022/04/03 00:10:35;;;;;;;;;;;;;;;0.55;41.94;98808.89;107631;1273;16468;-75
2022/04/03 00:13:02;;;;;;;;;;;;;;;0.53;41.78;98806.67;107721;1274;16456;-75
2022/04/03 00:15:29;;;;;;;;;;;;;;;0.52;41.88;98809.39;107445;1274;16454;-75
2022/04/03 00:17:55;;;;;;;;;;;;;;;0.50;41.86;98813.45;107273;1274;16448;-75
2022/04/03 00:20:22;;;;;;;;;;;;;;;0.48;42.02;98808.95;107616;1273;18015;-76
2022/04/03 00:22:49;;;;;;;;;;;;;;;0.46;41.95;98806.95;107225;1274;16525;-76
2022/04/03 00:25:18;;;;;;;;;;;;;;;0.41;42.18;98810.45;107496;1273;158249;-76
2022/04/03 00:27:45;;;;;;;;;;;;;;;0.37;42.21;98812.68;107690;1273;15437;-76
2022/04/03 00:30:12;;;;;;;;;;;;;;;0.34;42.10;98810.53;107309;1274;16427;-76
2022/04/03 00:32:39;;;;;;;;;;;;;;;0.30;42.06;98812.05;107568;1273;16459;-76
2022/04/03 00:35:06;;;;;;;;;;;;;;;0.26;42.29;98811.84;107403;1274;16450;-76
2022/04/03 00:37:33;;;;;;;;;;;;;;;0.23;42.57;98815.62;107633;1274;18575;-75
2022/04/03 00:39:59;;;;;;;;;;;;;;;0.21;42.34;98816.41;107438;1273;16447;-76
2022/04/03 00:42:26;;;;;;;;;;;;;;;0.17;42.29;98817.39;107444;1274;15415;-76
2022/04/03 00:44:53;;;;;;;;;;;;;;;0.12;42.17;98820.90;107564;1274;17875;-75
2022/04/03 00:47:20;;;;;;;;;;;;;;;0.09;42.69;98817.52;107416;1274;16446;-76
2022/04/03 00:49:47;;;;;;;;;;;;;;;0.07;42.78;98820.88;107391;1274;16447;-76
2022/04/03 00:52:13;;;;;;;;;;;;;;;0.06;42.62;98821.45;107566;1273;16464;-76
2022/04/03 00:54:40;;;;;;;;;;;;;;;0.05;42.62;98821.85;107635;1273;18374;-76
2022/04/03 00:57:07;;;;;;;;;;;;;;;0.03;42.55;98822.08;107499;1274;16519;-76
2022/04/03 00:59:34;;;;;;;;;;;;;;;0.02;42.62;98822.46;107378;1273;16440;-76
2022/04/03 01:02:02;;;;;;;;;;;;;;;0.01;42.62;98824.24;107414;1273;17280;-75
2022/04/03 01:04:29;;;;;;;;;;;;;;;-0.00;42.53;98826.22;107366;1274;17804;-77
2022/04/03 01:06:57;;;;;;;;;;;;;;;-0.03;42.70;98829.42;107391;1274;16523;-76
2022/04/03 01:09:23;;;;;;;;;;;;;;;-0.05;42.81;98832.67;107593;1274;18801;-76
2022/04/03 01:11:50;;;;;;;;;;;;;;;-0.08;42.99;98833.10;107489;1274;16443;-76
2022/04/03 01:14:29;;;;;;;;;;;;;;;-0.10;43.18;98835.09;107605;1273;16325;-76
2022/04/03 01:16:56;;;;;;;;;;;;;;;-0.13;42.90;98833.64;107241;1274;17878;-76
2022/04/03 01:19:22;;;;;;;;;;;;;;;-0.16;42.81;98832.34;107607;1273;16504;-76
2022/04/03 01:21:49;;;;;;;;;;;;;;;-0.20;42.89;98834.20;107534;1274;17380;-76
2022/04/03 01:24:18;;;;;;;;;;;;;;;-0.24;42.98;98836.08;107607;1272;16512;-76
2022/04/03 01:26:46;;;;;;;;;;;;;;;-0.27;42.96;98833.02;107559;1273;17332;-76
2022/04/03 01:29:13;;;;;;;;;;;;;;;-0.28;43.16;98833.94;107592;1273;16495;-75
2022/04/03 01:31:39;;;;;;;;;;;;;;;-0.29;43.33;98833.63;107450;1274;16444;-75
2022/04/03 01:34:07;;;;;;;;;;;;;;;-0.32;43.34;98837.56;107600;1273;16458;-76
2022/04/03 01:36:33;;;;;;;;;;;;;;;-0.32;43.03;98839.48;107612;1274;15601;-75
2022/04/03 01:39:01;;;;;;;;;;;;;;;-0.34;43.23;98838.48;107248;1273;15549;-75
2022/04/03 01:41:27;;;;;;;;;;;;;;;-0.35;43.34;98842.04;107591;1273;15463;-75
2022/04/03 01:43:55;;;;;;;;;;;;;;;-0.38;43.29;98843.16;107605;1274;16457;-75
2022/04/03 01:46:22;;;;;;;;;;;;;;;-0.39;43.25;98847.02;107632;1273;16442;-76
2022/04/03 01:48:48;;;;;;;;;;;;;;;-0.40;43.11;98847.77;107450;1273;18256;-75
2022/04/03 01:51:15;;;;;;;;;;;;;;;-0.41;43.46;98847.63;107485;1274;16904;-77
2022/04/03 01:53:42;;;;;;;;;;;;;;;-0.41;43.51;98847.13;107630;1273;16440;-75
2022/04/03 01:56:09;;;;;;;;;;;;;;;-0.41;43.26;98853.77;107597;1273;17026;-76
2022/04/03 01:58:35;;;;;;;;;;;;;;;-0.41;43.62;98852.02;107419;1274;16457;-76
2022/04/03 02:01:04;;;;;;;;;;;;;;;-0.39;43.47;98855.97;107576;1274;16503;-75
2022/04/03 02:03:31;;;;;;;;;;;;;;;-0.39;43.69;98855.79;107566;1273;17840;-75
2022/04/03 02:05:58;;;;;;;;;;;;;;;-0.37;43.62;98861.88;107610;1273;16450;-76
2022/04/03 02:08:25;;;;;;;;;;;;;;;-0.39;43.70;98860.15;107429;1273;18381;-76
2022/04/03 02:10:52;;;;;;;;;;;;;;;-0.40;43.52;98859.86;107408;1273;17446;-77
2022/04/03 02:13:18;;;;;;;;;;;;;;;-0.40;43.79;98862.29;107431;1273;16894;-76
2022/04/03 02:15:45;;;;;;;;;;;;;;;-0.39;43.92;98862.79;107462;1273;17812;-76
2022/04/03 02:18:12;;;;;;;;;;;;;;;-0.39;43.78;98863.83;107591;1273;16455;-76
2022/04/03 02:20:39;;;;;;;;;;;;;;;-0.40;44.07;98864.23;107443;1274;17280;-76
2022/04/03 02:23:06;;;;;;;;;;;;;;;-0.42;44.06;98861.67;107625;1273;15435;-76
2022/04/03 02:25:32;;;;;;;;;;;;;;;-0.43;43.91;98868.70;107633;1273;16449;-77
2022/04/03 02:27:59;;;;;;;;;;;;;;;-0.44;43.95;98867.85;107534;1274;16512;-75
2022/04/03 02:30:26;;;;;;;;;;;;;;;-0.46;44.15;98872.42;107555;1273;17841;-76
2022/04/03 02:32:53;;;;;;;;;;;;;;;-0.46;44.11;98871.94;107545;1273;16448;-76
2022/04/03 02:35:20;;;;;;;;;;;;;;;-0.47;44.20;98874.58;107328;1274;16537;-75
2022/04/03 02:37:47;;;;;;;;;;;;;;;-0.49;44.17;98873.27;107599;1273;16458;-75
2022/04/03 02:40:15;;;;;;;;;;;;;;;-0.52;44.16;98877.52;107565;1274;19725;-77
2022/04/03 02:42:41;;;;;;;;;;;;;;;-0.52;44.30;98878.04;107543;1273;16460;-75
2022/04/03 02:45:10;;;;;;;;;;;;;;;-0.51;44.53;98877.86;107263;1273;16460;-76
2022/04/03 02:47:37;;;;;;;;;;;;;;;-0.51;44.55;98877.14;107303;1274;16446;-74
2022/04/03 02:50:05;;;;;;;;;;;;;;;-0.52;44.23;98881.01;107595;1274;16912;-76
2022/04/03 02:52:32;;;;;;;;;;;;;;;-0.53;44.60;98882.13;107586;1273;15353;-73
2022/04/03 02:54:58;;;;;;;;;;;;;;;-0.56;44.40;98884.30;107262;1274;16503;-75
2022/04/03 02:57:25;;;;;;;;;;;;;;;-0.60;44.60;98885.27;107296;1274;16495;-75
2022/04/03 02:59:52;;;;;;;;;;;;;;;-0.65;44.54;98886.33;107270;1274;15512;-77
2022/04/03 03:02:19;;;;;;;;;;;;;;;-0.70;44.90;98886.83;107297;1274;16443;-77
2022/04/03 03:04:46;;;;;;;;;;;;;;;-0.74;44.84;98888.35;107260;1273;15448;-77
2022/04/03 03:07:12;;;;;;;;;;;;;;;-0.77;45.12;98887.90;107604;1273;16520;-77
2022/04/03 03:09:39;;;;;;;;;;;;;;;-0.80;44.92;98888.70;107226;1274;16508;-77
2022/04/03 03:12:06;;;;;;;;;;;;;;;-0.85;45.33;98887.24;107256;1274;16468;-76
2022/04/03 03:14:33;;;;;;;;;;;;;;;-0.90;45.38;98886.17;107366;1274;18627;-77
2022/04/03 03:17:01;;;;;;;;;;;;;;;-0.95;45.50;98887.00;107386;1273;16536;-78
2022/04/03 03:19:27;;;;;;;;;;;;;;;-0.99;45.20;98889.41;107598;1273;16842;-77
2022/04/03 03:21:54;;;;;;;;;;;;;;;-1.04;45.26;98891.30;107221;1274;17060;-77
2022/04/03 03:24:21;;;;;;;;;;;;;;;-1.09;45.71;98898.94;107297;1274;17283;-77
2022/04/03 03:26:48;;;;;;;;;;;;;;;-1.15;45.34;98901.20;107297;1274;16456;-77
2022/04/03 03:29:14;;;;;;;;;;;;;;;-1.18;45.58;98904.77;107548;1274;17833;-76
2022/04/03 03:31:41;;;;;;;;;;;;;;;-1.21;45.60;98907.98;107279;1274;16466;-76
2022/04/03 03:34:08;;;;;;;;;;;;;;;-1.23;45.60;98903.86;107555;1274;16450;-76
2022/04/03 03:36:35;;;;;;;;;;;;;;;-1.26;45.67;98901.86;107591;1274;19382;-77
2022/04/03 03:39:02;;;;;;;;;;;;;;;-1.29;45.85;98910.31;107580;1273;16510;-76
2022/04/03 03:41:29;;;;;;;;;;;;;;;-1.33;45.84;98909.55;107365;1274;15343;-76
2022/04/03 03:43:55;;;;;;;;;;;;;;;-1.37;46.05;98908.42;107478;1274;16440;-76
2022/04/03 03:46:22;;;;;;;;;;;;;;;-1.40;46.08;98916.18;107471;1273;17258;-76
2022/04/03 03:48:48;;;;;;;;;;;;;;;-1.42;46.00;98915.54;107489;1273;16478;-76
2022/04/03 03:51:15;;;;;;;;;;;;;;;-1.43;46.23;98918.89;107248;1272;15385;-75
2022/04/03 03:53:41;;;;;;;;;;;;;;;-1.46;46.33;98926.99;107393;1273;17830;-75
2022/04/03 03:56:08;;;;;;;;;;;;;;;-1.48;46.20;98928.98;107595;1273;16453;-75
2022/04/03 03:58:35;;;;;;;;;;;;;;;-1.51;46.42;98930.60;107591;1273;16503;-77
2022/04/03 04:01:02;;;;;;;;;;;;;;;-1.52;46.34;98936.41;107417;1274;16755;-75
2022/04/03 04:03:28;;;;;;;;;;;;;;;-1.54;46.39;98934.71;107566;1273;16449;-75
2022/04/03 04:05:55;;;;;;;;;;;;;;;-1.56;46.78;98937.73;107335;1274;15447;-75
2022/04/03 04:08:21;;;;;;;;;;;;;;;-1.58;46.81;98942.15;107587;1273;17336;-74
2022/04/03 04:10:48;;;;;;;;;;;;;;;-1.57;46.68;98941.60;107581;1274;16426;-76
2022/04/03 04:13:15;;;;;;;;;;;;;;;-1.53;46.85;98943.76;107563;1274;17278;-75
2022/04/03 04:15:41;;;;;;;;;;;;;;;-1.50;46.82;98945.78;107272;1274;16669;-75
2022/04/03 04:18:10;;;;;;;;;;;;;;;-1.48;46.85;98942.23;107636;1273;17617;-75
2022/04/03 04:20:42;;;;;;;;;;;;;;;-1.46;46.93;98948.66;107246;1275;16494;-74
2022/04/03 04:23:10;;;;;;;;;;;;;;;-1.47;47.03;98950.95;107321;1274;16889;-75
2022/04/03 04:25:37;;;;;;;;;;;;;;;-1.48;47.19;98955.15;107426;1274;16455;-75
2022/04/03 04:28:05;;;;;;;;;;;;;;;-1.48;47.09;98957.42;107292;1274;16442;-75
2022/04/03 04:30:32;;;;;;;;;;;;;;;-1.52;47.16;98958.77;107382;1274;16428;-74
2022/04/03 04:33:00;;;;;;;;;;;;;;;-1.56;47.24;98958.85;107575;1274;16484;-75
2022/04/03 04:35:27;;;;;;;;;;;;;;;-1.57;47.18;98963.77;107583;1273;16519;-75
2022/04/03 04:37:54;;;;;;;;;;;;;;;-1.57;47.33;98967.80;107576;1272;16443;-76
2022/04/03 04:40:20;;;;;;;;;;;;;;;-1.60;47.30;98964.02;107254;1274;16331;-76
2022/04/03 04:42:49;;;;;;;;;;;;;;;-1.62;47.51;98969.83;107267;1274;16449;-76
2022/04/03 04:45:16;;;;;;;;;;;;;;;-1.65;47.58;98968.15;107626;1273;16459;-76
2022/04/03 04:47:43;;;;;;;;;;;;;;;-1.65;47.81;98971.82;107512;1274;17411;-74
2022/04/03 04:50:11;;;;;;;;;;;;;;;-1.63;47.79;98977.19;107606;1273;17322;-75
2022/04/03 04:52:39;;;;;;;;;;;;;;;-1.58;47.71;98979.14;107254;1274;17402;-76
2022/04/03 04:55:06;;;;;;;;;;;;;;;-1.54;47.75;98982.19;107582;1273;16160;-75
2022/04/03 04:57:37;;;;;;;;;;;;;;;-1.51;47.71;98984.41;107247;1274;18936;-75
2022/04/03 05:00:09;;;;;;;;;;;;;;;-1.50;47.82;98988.55;107508;1273;16522;-77
2022/04/03 05:02:46;;;;;;;;;;;;;;;-1.48;47.72;98990.77;107340;1273;18205;-75
2022/04/03 05:05:17;;;;;;;;;;;;;;;-1.49;47.93;98999.17;107653;1273;16413;-76
2022/04/03 05:07:45;;;;;;;;;;;;;;;-1.50;47.92;98995.20;109281;1274;17809;-75
2022/04/03 05:10:12;;;;;;;;;;;;;;;-1.51;47.95;99003.78;107225;1274;16519;-75
2022/04/03 05:12:40;;;;;;;;;;;;;;;-1.57;48.09;99011.08;107380;1274;16726;-75
2022/04/03 05:15:08;;;;;;;;;;;;;;;-1.64;48.19;99008.79;107569;1273;15775;-75
2022/04/03 05:17:34;;;;;;;;;;;;;;;-1.66;48.12;99014.77;107313;1274;16469;-76
2022/04/03 05:20:01;;;;;;;;;;;;;;;-1.69;48.22;99021.13;107434;1274;17826;-75
2022/04/03 05:22:28;;;;;;;;;;;;;;;-1.71;48.31;99027.14;107306;1274;16540;-75
2022/04/03 05:24:54;;;;;;;;;;;;;;;-1.73;48.18;99026.62;107547;1274;17286;-75
2022/04/03 05:27:21;;;;;;;;;;;;;;;-1.72;48.27;99033.07;107605;1273;15538;-75
2022/04/03 05:29:49;;;;;;;;;;;;;;;-1.71;48.41;99029.55;107637;1273;16507;-74
2022/04/03 05:32:25;;;;;;;;;;;;;;;-1.68;48.45;99033.49;107299;1274;17811;-75
2022/04/03 05:34:52;;;;;;;;;;;;;;;-1.68;48.32;99038.55;107382;1274;16558;-75
2022/04/03 05:37:19;;;;;;;;;;;;;;;-1.70;48.34;99037.73;107505;1274;15419;-74
2022/04/03 05:39:46;;;;;;;;;;;;;;;-1.70;48.54;99035.99;107593;1272;16445;-74
2022/04/03 05:42:13;;;;;;;;;;;;;;;-1.69;48.55;99039.98;107522;1273;16459;-76
2022/04/03 05:44:39;;;;;;;;;;;;;;;-1.67;48.63;99042.38;107572;1274;16698;-77
2022/04/03 05:47:07;;;;;;;;;;;;;;;-1.65;48.65;99043.39;107598;1274;16514;-78
2022/04/03 05:49:34;;;;;;;;;;;;;;;-1.62;48.70;99048.55;107613;1272;15468;-78
2022/04/03 05:52:00;;;;;;;;;;;;;;;-1.59;48.61;99046.58;107600;1273;16494;-78
2022/04/03 05:54:27;;;;;;;;;;;;;;;-1.53;48.63;99047.98;107590;1274;17883;-78
2022/04/03 05:56:55;;;;;;;;;;;;;;;-1.47;48.73;99051.85;107462;1274;16445;-75
2022/04/03 05:59:21;;;;;;;;;;;;;;;-1.44;48.72;99057.38;107346;1274;15454;-76
2022/04/03 06:01:49;;;;;;;;;;;;;;;-1.42;48.88;99052.60;107495;1273;19169;-76
2022/04/03 06:04:15;;;;;;;;;;;;;;;-1.39;48.80;99058.48;107578;1273;16521;-75
2022/04/03 06:06:42;;;;;;;;;;;;;;;-1.36;48.62;99061.55;107319;1274;16484;-75
2022/04/03 06:09:09;;;;;;;;;;;;;;;-1.28;48.92;99057.01;107365;1274;17284;-76
2022/04/03 06:11:35;;;;;;;;;;;;;;;-1.21;48.98;99054.39;107215;1274;16452;-75
2022/04/03 06:14:02;;;;;;;;;;;;;;;-1.10;49.06;99058.13;107567;1273;18391;-77
2022/04/03 06:16:29;;;;;;;;;;;;;;;-0.95;49.01;99060.71;107508;1274;17803;-76
2022/04/03 06:18:55;;;;;;;;;;;;;;;-0.84;48.82;99060.10;107508;1274;15464;-78
2022/04/03 06:21:23;;;;;;;;;;;;;;;-0.77;49.11;99063.41;107311;1274;16473;-76
2022/04/03 06:23:49;;;;;;;;;;;;;;;-0.71;49.13;99058.19;107599;1272;16517;-76
2022/04/03 06:26:17;;;;;;;;;;;;;;;-0.61;49.13;99057.55;107563;1273;16508;-76
2022/04/03 06:28:44;;;;;;;;;;;;;;;-0.50;49.09;99065.64;107408;1273;17555;-76
2022/04/03 06:31:11;;;;;;;;;;;;;;;-0.36;49.00;99063.87;107600;1273;16445;-77
2022/04/03 06:33:37;;;;;;;;;;;;;;;-0.27;48.87;99066.41;107342;1274;16923;-76
2022/04/03 06:36:06;;;;;;;;;;;;;;;-0.21;48.81;99067.28;107598;1274;17467;-76
2022/04/03 06:38:32;;;;;;;;;;;;;;;-0.13;48.57;99072.84;107430;1274;17422;-77
2022/04/03 06:40:59;;;;;;;;;;;;;;;-0.07;48.71;99072.67;107198;1274;15376;-77
2022/04/03 06:43:29;;;;;;;;;;;;;;;-0.03;48.65;99072.00;107586;1274;18364;-76
2022/04/03 06:45:56;;;;;;;;;;;;;;;0.07;49.01;99067.70;107377;1274;16463;-77
2022/04/03 06:48:24;;;;;;;;;;;;;;;0.18;48.80;99073.85;107621;1274;15634;-76
2022/04/03 06:50:51;;;;;;;;;;;;;;;0.24;48.87;99077.54;107228;1273;16290;-77
2022/04/03 06:53:18;;;;;;;;;;;;;;;0.27;48.93;99073.06;107626;1274;16816;-78
2022/04/03 06:55:44;;;;;;;;;;;;;;;0.34;48.73;99075.14;107218;1274;17821;-76
2022/04/03 06:58:11;;;;;;;;;;;;;;;0.36;48.78;99076.45;107593;1274;16435;-79
2022/04/03 07:00:38;;;;;;;;;;;;;;;0.41;48.93;99078.60;107510;1274;16454;-77
2022/04/03 07:03:05;;;;;;;;;;;;;;;0.45;48.67;99075.85;107345;1273;16519;-76
2022/04/03 07:05:31;;;;;;;;;;;;;;;0.47;48.64;99080.14;107198;1275;17805;-76
2022/04/03 07:07:58;;;;;;;;;;;;;;;0.52;48.76;99082.80;107554;1274;16432;-77
2022/04/03 07:10:25;;;;;;;;;;;;;;;0.55;48.74;99083.58;107297;1274;16458;-77
2022/04/03 07:12:54;;;;;;;;;;;;;;;0.53;48.69;99084.88;107615;1274;17478;-77
2022/04/03 07:15:21;;;;;;;;;;;;;;;0.52;48.62;99083.69;107204;1274;16459;-77
2022/04/03 07:17:48;;;;;;;;;;;;;;;0.51;48.62;99087.92;107595;1274;16433;-76
2022/04/03 07:20:14;;;;;;;;;;;;;;;0.48;48.45;99093.27;107262;1274;15402;-76
2022/04/03 07:22:41;;;;;;;;;;;;;;;0.45;48.75;99097.04;107601;1274;16483;-76
2022/04/03 07:25:12;;;;;;;;;;;;;;;0.46;48.61;99093.14;107320;1274;17558;-75
2022/04/03 07:27:39;;;;;;;;;;;;;;;0.51;48.80;99093.85;107553;1273;16516;-74
2022/04/03 07:30:12;;;;;;;;;;;;;;;0.60;48.76;99092.55;107228;1274;15949;-74
2022/04/03 07:32:39;;;;;;;;;;;;;;;0.67;48.61;99093.71;107565;1273;18212;-76
2022/04/03 07:35:06;;;;;;;;;;;;;;;0.73;48.57;99101.39;107269;1274;16515;-74
2022/04/03 07:37:33;;;;;;;;;;;;;;;0.75;48.67;99099.92;107300;1274;16521;-78
2022/04/03 07:40:00;;;;;;;;;;;;;;;0.75;48.56;99112.20;107332;1274;16894;-76
2022/04/03 07:42:27;;;;;;;;;;;;;;;0.71;48.49;99111.80;107703;1274;15586;-77
2022/04/03 07:44:54;;;;;;;;;;;;;;;0.69;48.58;99107.84;107545;1274;17796;-75
2022/04/03 07:47:21;;;;;;;;;;;;;;;0.68;48.62;99110.87;107339;1274;16523;-76
2022/04/03 07:49:47;;;;;;;;;;;;;;;0.65;48.51;99109.20;107263;1275;17181;-74
2022/04/03 07:52:15;;;;;;;;;;;;;;;0.65;48.69;99109.91;107578;1273;18453;-75
2022/04/03 07:54:42;;;;;;;;;;;;;;;0.70;48.48;99117.64;107329;1274;15402;-74
2022/04/03 07:57:10;;;;;;;;;;;;;;;0.75;48.46;99118.17;107272;1274;16525;-75
2022/04/03 07:59:37;;;;;;;;;;;;;;;0.82;48.45;99120.06;107310;1274;16936;-76
2022/04/03 08:02:04;;;;;;;;;;;;;;;0.95;48.72;99119.47;107556;1273;16476;-78
2022/04/03 08:04:30;;;;;;;;;;;;;;;1.07;48.57;99122.41;107281;1274;17835;-76
2022/04/03 08:06:57;;;;;;;;;;;;;;;1.16;48.73;99120.36;107515;1274;18081;-77
2022/04/03 08:09:24;;;;;;;;;;;;;;;1.26;48.32;99119.15;107580;1274;18672;-77
2022/04/03 08:11:51;;;;;;;;;;;;;;;1.40;48.06;99118.16;107311;1274;16455;-79
2022/04/03 08:14:18;;;;;;;;;;;;;;;1.51;48.21;99124.09;107590;1274;18726;-77
2022/04/03 08:16:45;;;;;;;;;;;;;;;1.66;47.91;99127.43;107234;1275;15471;-75
2022/04/03 08:19:12;;;;;;;;;;;;;;;1.84;48.11;99123.64;107565;1273;15364;-75
2022/04/03 08:21:39;;;;;;;;;;;;;;;2.02;47.86;99128.61;107353;1274;17794;-75
2022/04/03 08:24:06;;;;;;;;;;;;;;;2.07;47.64;99122.98;107228;1274;17271;-76
2022/04/03 08:26:32;;;;;;;;;;;;;;;2.09;47.75;99124.46;107605;1274;18259;-76
2022/04/03 08:29:00;;;;;;;;;;;;;;;2.14;47.55;99121.46;107246;1275;16496;-77
2022/04/03 08:31:30;;;;;;;;;;;;;;;2.19;47.62;99132.02;107605;1273;17322;-75
2022/04/03 08:33:57;;;;;;;;;;;;;;;2.19;47.48;99132.55;107312;1275;16449;-76
2022/04/03 08:36:24;;;;;;;;;;;;;;;2.22;47.49;99132.45;107280;1275;16470;-76
2022/04/03 08:38:52;;;;;;;;;;;;;;;2.25;47.56;99131.46;107594;1273;17460;-75
2022/04/03 08:41:19;;;;;;;;;;;;;;;2.35;47.55;99133.34;107648;1274;16465;-75
2022/04/03 08:43:47;;;;;;;;;;;;;;;2.56;47.62;99126.40;107308;1275;16444;-75
2022/04/03 08:46:14;;;;;;;;;;;;;;;2.79;47.40;99125.49;107605;1274;16517;-78
2022/04/03 08:48:44;;;;;;;;;;;;;;;2.94;47.21;99122.11;107271;1275;17848;-78
2022/04/03 08:51:13;;;;;;;;;;;;;;;3.08;46.95;99121.36;107670;1273;16116;-76
2022/04/03 08:53:43;;;;;;;;;;;;;;;3.12;47.14;99146.37;107330;1274;16477;-76
2022/04/03 08:56:10;;;;;;;;;;;;;;;3.01;47.06;99152.06;107601;1273;16485;-77
2022/04/03 08:58:36;;;;;;;;;;;;;;;2.91;47.18;99155.78;107279;1275;16445;-77
2022/04/03 09:01:03;;;;;;;;;;;;;;;2.86;47.28;99156.34;107550;1274;16462;-76
2022/04/03 09:03:30;;;;;;;;;;;;;;;2.83;47.47;99164.54;107559;1273;16437;-76
2022/04/03 09:06:10;;;;;;;;;;;;;;;2.73;47.56;99167.93;107233;1275;16479;-77
2022/04/03 09:08:37;;;;;;;;;;;;;;;2.48;47.99;99165.88;107421;1273;16799;-76
2022/04/03 09:11:07;;;;;;;;;;;;;;;2.36;48.30;99170.55;107310;1274;16514;-77
2022/04/03 09:13:35;;;;;;;;;;;;;;;2.15;48.33;99167.46;107410;1273;16792;-78
2022/04/03 09:16:02;;;;;;;;;;;;;;;1.91;48.33;99167.61;107353;1274;16477;-79
2022/04/03 09:18:46;;;;;;;;;;;;;;;1.73;48.52;99159.84;107481;1274;17287;-77
2022/04/03 09:21:32;;;;;;;;;;;;;;;1.63;48.70;99162.10;107576;1274;15730;-77
2022/04/03 09:24:11;;;;;;;;;;;;;;;1.72;48.80;99159.17;107321;1274;16461;-76
2022/04/03 09:26:42;;;;;;;;;;;;;;;1.80;49.02;99155.88;107429;1274;16117;-76
2022/04/03 09:29:17;;;;;;;;;;;;;;;2.03;49.11;99155.45;107602;1273;17589;-75
2022/04/03 09:31:45;;;;;;;;;;;;;;;2.35;48.79;99148.98;107454;1274;17281;-76
2022/04/03 09:34:19;;;;;;;;;;;;;;;2.67;48.55;99142.15;107213;1274;16529;-76
2022/04/03 09:36:59;;;;;;;;;;;;;;;2.93;48.21;99147.63;107562;1274;16476;-76
2022/04/03 09:39:46;;;;;;;;;;;;;;;2.98;47.71;99147.45;107277;1274;17031;-76
2022/04/03 09:42:13;;;;;;;;;;;;;;;2.94;47.59;99141.64;107532;1273;16468;-77
2022/04/03 09:44:41;;;;;;;;;;;;;;;2.93;47.58;99146.93;107228;1274;16509;-76
2022/04/03 09:47:15;;;;;;;;;;;;;;;2.93;47.52;99142.52;107579;1273;16457;-77
2022/04/03 09:49:42;;;;;;;;;;;;;;;3.04;47.53;99154.61;107590;1274;17835;-75
2022/04/03 09:52:09;;;;;;;;;;;;;;;3.05;47.23;99151.04;107221;1274;16472;-77
2022/04/03 09:54:37;;;;;;;;;;;;;;;2.98;47.17;99146.92;107586;1273;16512;-77
2022/04/03 09:57:20;;;;;;;;;;;;;;;2.95;47.08;99144.36;107369;1274;16467;-77
2022/04/03 09:59:52;;;;;;;;;;;;;;;3.08;46.92;99146.35;107594;1274;16510;-77
2022/04/03 10:02:24;;;;;;;;;;;;;;;3.24;47.16;99145.14;107264;1274;16467;-77
2022/04/03 10:04:55;;;;;;;;;;;;;;;3.43;47.16;99149.27;107367;1274;17840;-77
2022/04/03 10:07:22;;;;;;;;;;;;;;;3.58;47.07;99142.86;107538;1273;17582;-76
2022/04/03 10:09:51;;;;;;;;;;;;;;;3.70;47.01;99145.00;107611;1273;16458;-76
2022/04/03 10:12:19;;;;;;;;;;;;;;;3.76;47.10;99146.67;107304;1274;17851;-76
2022/04/03 10:14:47;;;;;;;;;;;;;;;3.83;46.90;99154.29;107420;1274;16058;-76
2022/04/03 10:17:14;;;;;;;;;;;;;;;3.82;46.56;99147.61;107556;1274;18653;-76
2022/04/03 10:19:41;;;;;;;;;;;;;;;3.77;46.67;99148.19;107343;1274;16854;-77
2022/04/03 10:22:20;;;;;;;;;;;;;;;3.72;46.62;99138.18;107353;1274;16502;-77
2022/04/03 10:24:50;;;;;;;;;;;;;;;3.73;46.96;99139.55;107570;1273;16555;-77
2022/04/03 10:27:22;;;;;;;;;;;;;;;3.74;46.74;99132.31;107583;1272;16528;-77
2022/04/03 10:30:10;;;;;;;;;;;;;;;3.71;46.51;99136.49;107264;1274;16476;-76
2022/04/03 10:32:37;;;;;;;;;;;;;;;3.68;46.56;99139.62;107580;1274;16059;-76
2022/04/03 10:35:08;;;;;;;;;;;;;;;3.69;46.49;99143.95;107664;1273;16456;-78
2022/04/03 10:37:36;;;;;;;;;;;;;;;3.82;46.39;99136.71;107364;1274;17861;-78
2022/04/03 10:40:07;;;;;;;;;;;;;;;3.96;46.39;99132.56;107587;1273;16462;-77
2022/04/03 10:42:47;;;;;;;;;;;;;;;4.09;46.32;99131.81;107590;1273;16457;-82
2022/04/03 10:45:14;;;;;;;;;;;;;;;4.15;45.93;99141.44;107403;1274;16668;-76
2022/04/03 10:47:42;;;;;;;;;;;;;;;4.08;45.74;99136.63;107581;1274;16449;-76
2022/04/03 10:50:21;;;;;;;;;;;;;;;4.04;45.90;99127.79;107526;1274;15379;-77
2022/04/03 10:52:50;;;;;;;;;;;;;;;4.08;45.85;99128.38;107565;1273;17452;-77
2022/04/03 10:55:25;;;;;;;;;;;;;;;4.21;45.88;99124.42;107336;1274;17826;-77
2022/04/03 10:58:06;;;;;;;;;;;;;;;4.40;45.71;99123.72;107288;1273;16602;-77
2022/04/03 11:00:35;;;;;;;;;;;;;;;4.56;45.72;99120.49;107588;1274;15469;-77
2022/04/03 11:03:32;;;;;;;;;;;;;;;4.67;45.57;99120.70;107375;1274;16467;-76
2022/04/03 11:06:18;;;;;;;;;;;;;;;4.76;45.44;99120.09;107521;1274;17287;-76
2022/04/03 11:08:54;;;;;;;;;;;;;;;4.74;45.16;99129.35;107473;1274;16625;-77
2022/04/03 11:11:34;;;;;;;;;;;;;;;4.65;45.03;99129.29;107465;1274;16469;-77
2022/04/03 11:14:00;;;;;;;;;;;;;;;4.66;45.03;99122.88;107412;1275;17232;-76
2022/04/03 11:16:28;;;;;;;;;;;;;;;4.73;44.88;99128.73;107317;1274;16525;-76
2022/04/03 11:19:02;;;;;;;;;;;;;;;4.70;44.85;99128.84;107388;1274;16440;-76
2022/04/03 11:21:33;;;;;;;;;;;;;;;4.66;44.56;99127.46;107337;1274;17043;-78
2022/04/03 11:24:03;;;;;;;;;;;;;;;4.61;44.86;99124.00;107324;1273;16546;-77
2022/04/03 11:26:30;;;;;;;;;;;;;;;4.53;44.87;99132.27;107265;1275;15464;-77
2022/04/03 11:28:56;;;;;;;;;;;;;;;4.42;44.68;99137.91;107263;1276;16443;-77
2022/04/03 11:31:23;;;;;;;;;;;;;;;4.34;44.85;99145.50;107373;1274;18831;-77
2022/04/03 11:33:50;;;;;;;;;;;;;;;4.30;44.66;99136.51;107378;1274;16461;-76
2022/04/03 11:36:18;;;;;;;;;;;;;;;4.25;44.56;99134.27;107365;1274;16439;-79
2022/04/03 11:38:48;;;;;;;;;;;;;;;4.12;44.39;99130.45;107244;1274;16447;-76
2022/04/03 11:41:16;;;;;;;;;;;;;;;4.02;44.56;99123.84;107321;1274;16459;-76
2022/04/03 11:43:54;;;;;;;;;;;;;;;4.07;44.80;99124.85;107292;1274;16445;-78
2022/04/03 11:46:22;;;;;;;;;;;;;;;4.32;44.74;99116.19;107423;1274;16525;-78
2022/04/03 11:48:49;;;;;;;;;;;;;;;4.45;44.67;99117.33;107385;1274;16530;-78
2022/04/03 11:51:17;;;;;;;;;;;;;;;4.51;44.62;99127.45;107261;1274;16516;-78
2022/04/03 11:53:44;;;;;;;;;;;;;;;4.48;44.28;99118.07;107348;1274;15448;-78
2022/04/03 11:56:12;;;;;;;;;;;;;;;4.44;44.25;99110.33;107306;1274;16472;-76
2022/04/03 11:58:40;;;;;;;;;;;;;;;4.56;44.22;99113.45;107350;1274;16460;-77
2022/04/03 12:01:07;;;;;;;;;;;;;;;4.79;44.22;99111.64;107320;1274;16522;-77
2022/04/03 12:03:35;;;;;;;;;;;;;;;4.94;44.01;99098.09;107339;1274;16460;-78
2022/04/03 12:06:12;;;;;;;;;;;;;;;4.96;44.18;99105.38;107306;1273;16498;-75
2022/04/03 12:08:40;;;;;;;;;;;;;;;5.00;44.02;99106.61;107305;1274;16931;-76
2022/04/03 12:11:24;;;;;;;;;;;;;;;4.95;43.98;99112.14;107460;1274;16466;-76
2022/04/03 12:13:57;;;;;;;;;;;;;;;4.88;44.10;99112.65;107613;1274;16548;-76
2022/04/03 12:16:25;;;;;;;;;;;;;;;4.82;43.86;99107.25;107399;1274;16542;-75
2022/04/03 12:18:54;;;;;;;;;;;;;;;4.86;43.90;99109.55;107588;1273;17271;-77
2022/04/03 12:21:22;;;;;;;;;;;;;;;4.92;43.75;99114.45;107384;1274;16514;-76
2022/04/03 12:24:25;;;;;;;;;;;;;;;4.91;43.88;99120.96;107501;1274;16469;-76
2022/04/03 12:26:54;;;;;;;;;;;;;;;4.85;43.82;99103.94;107460;1274;153790;-76
2022/04/03 12:29:23;;;;;;;;;;;;;;;4.83;43.77;99108.85;107650;1274;17338;-76
2022/04/03 12:31:57;;;;;;;;;;;;;;;4.74;43.80;99104.54;107625;1273;16473;-77
2022/04/03 12:34:24;;;;;;;;;;;;;;;4.69;43.54;99099.82;107632;1273;16498;-77
2022/04/03 12:36:52;;;;;;;;;;;;;;;4.77;43.90;99089.55;107336;1274;16446;-76
2022/04/03 12:39:37;;;;;;;;;;;;;;;4.86;43.55;99095.98;107619;1274;16497;-75
2022/04/03 12:42:08;;;;;;;;;;;;;;;4.76;43.52;99097.32;107563;1274;16690;-74
2022/04/03 12:44:45;;;;;;;;;;;;;;;4.76;43.52;99081.28;107386;1274;17447;-75
2022/04/03 12:47:13;;;;;;;;;;;;;;;4.75;43.74;99084.01;107569;1273;16521;-75
2022/04/03 12:49:41;;;;;;;;;;;;;;;4.56;43.45;99085.42;107583;1274;16513;-77